Menu Close Menu
Station Historical Data
Daily Summary for June 3, 2017 Units:  English    Metric   Both
« Previous Day
Next Day »
Daily Weekly Monthly Yearly Custom
  High: Low: Average:
Temperature: 88.1 °F 65.8 °F 75.8 °F
Dew Point: 70.2 °F 59.5 °F 64.7 °F
Humidity: 91% 41% 71%
Wind Speed: 1.0mph 0.0mph 0mph
Wind Gust: 2.0mph - -
Wind- - SW
Pressure: 30.09 in 29.96 in -
Precipitation: 0.00 in    
Historical Graphs
 
 
Tabular Data for June 3, 2017
Time Temperature Dew Point Pressure Wind Wind Speed Wind Gust Humidity Rainfall Rate (Hourly) solar Conditions
00:00 70.7 °F 63.9 °F 30.04 in Calm     79% 0.00 in WeatherDisplay:10.37 W/m2 SCT
00:10 70.4 °F 63.9 °F 30.04 in Calm     80% 0.00 in WeatherDisplay:10.37 W/m2 SCT
00:20 70.0 °F 63.9 °F 30.04 in Calm     81% 0.00 in WeatherDisplay:10.37 W/m2 SCT
00:30 69.9 °F 64.2 °F 30.04 in Calm     82% 0.00 in WeatherDisplay:10.37 W/m2 SCT
00:40 69.8 °F 64.1 °F 30.04 in Calm     82% 0.00 in WeatherDisplay:10.37 W/m2 SCT
00:50 69.8 °F 64.4 °F 30.04 in Calm     83% 0.00 in WeatherDisplay:10.37 W/m2 SCT
01:00 69.8 °F 64.4 °F 30.03 in Calm     83% 0.00 in WeatherDisplay:10.37 W/m2 SCT
01:10 69.8 °F 64.4 °F 30.03 in Calm     83% 0.00 in WeatherDisplay:10.37 W/m2 SCT
01:20 69.7 °F 64.3 °F 30.03 in Calm     83% 0.00 in WeatherDisplay:10.37 W/m2 SCT
01:30 69.7 °F 64.6 °F 30.03 in Calm     84% 0.00 in WeatherDisplay:10.37 W/m2 SCT
01:40 69.7 °F 64.6 °F 30.03 in Calm     84% 0.00 in WeatherDisplay:10.37 W/m2 SCT
01:50 69.7 °F 64.6 °F 30.03 in Calm     84% 0.00 in WeatherDisplay:10.37 W/m2 SCT
02:00 69.6 °F 64.5 °F 30.03 in Calm     84% 0.00 in WeatherDisplay:10.37 W/m2 SCT
02:10 69.4 °F 64.4 °F 30.02 in Calm     84% 0.00 in WeatherDisplay:10.37 W/m2 SCT
02:20 69.2 °F 64.5 °F 30.02 in Calm     85% 0.00 in WeatherDisplay:10.37 W/m2 SCT
02:30 69.0 °F 64.0 °F 30.02 in Calm     84% 0.00 in WeatherDisplay:10.37 W/m2 SCT
02:40 68.6 °F 63.9 °F 30.01 in Calm     85% 0.00 in WeatherDisplay:10.37 W/m2 SCT
02:50 68.3 °F 63.6 °F 30.01 in Calm     85% 0.00 in WeatherDisplay:10.37 W/m2 SCT
03:00 68.0 °F 63.7 °F 30.01 in Calm     86% 0.00 in WeatherDisplay:10.37 W/m2 SCT
03:10 67.8 °F 63.5 °F 30.01 in Calm     86% 0.00 in WeatherDisplay:10.37 W/m2 SCT
03:20 67.6 °F 63.6 °F 30.01 in Calm     87% 0.00 in WeatherDisplay:10.37 W/m2 SCT
03:30 66.4 °F 62.1 °F 30.01 in Calm     86% 0.00 in WeatherDisplay:10.37 W/m2 SCT
03:40 66.4 °F 62.1 °F 30.01 in Calm     86% 0.00 in WeatherDisplay:10.37 W/m2 SCT
03:50 66.4 °F 62.1 °F 30.01 in Calm     86% 0.00 in WeatherDisplay:10.37 W/m2 SCT
04:00 66.4 °F 62.1 °F 30.01 in Calm     86% 0.00 in WeatherDisplay:10.37 W/m2 SCT
04:10 66.4 °F 62.1 °F 30.01 in Calm     86% 0.00 in WeatherDisplay:10.37 W/m2 SCT
04:20 66.4 °F 62.1 °F 30.01 in Calm     86% 0.00 in WeatherDisplay:10.37 W/m2 SCT
04:30 66.4 °F 62.1 °F 30.01 in Calm     86% 0.00 in WeatherDisplay:10.37 W/m2 SCT
04:40 66.4 °F 62.1 °F 30.01 in Calm     86% 0.00 in WeatherDisplay:10.37 W/m2 SCT
04:50 66.4 °F 62.1 °F 30.01 in Calm     86% 0.00 in WeatherDisplay:10.37 W/m2 SCT
05:00 66.4 °F 62.1 °F 30.01 in Calm     86% 0.00 in WeatherDisplay:10.37 W/m2 SCT
05:10 66.4 °F 62.1 °F 30.01 in Calm     86% 0.00 in WeatherDisplay:10.37 W/m2 SCT
05:20 66.4 °F 62.1 °F 30.01 in Calm     86% 0.00 in WeatherDisplay:10.37 W/m2 SCT
05:30 66.4 °F 62.1 °F 30.02 in Calm     86% 0.00 in WeatherDisplay:10.37 W/m2 SCT
05:40 66.4 °F 62.1 °F 30.02 in Calm     86% 0.00 in WeatherDisplay:10.37 W/m2 SCT
05:50 66.4 °F 62.1 °F 30.02 in Calm     86% 0.00 in WeatherDisplay:10.37 W/m2 SCT
06:00 66.4 °F 62.1 °F 30.03 in Calm     86% 0.00 in WeatherDisplay:10.37 W/m2 SCT
06:10 66.4 °F 62.1 °F 30.03 in Calm     86% 0.00 in WeatherDisplay:10.37 W/m2 SCT
06:20 66.4 °F 62.1 °F 30.03 in Calm     86% 0.00 in WeatherDisplay:10.37 W/m2 SCT
06:30 66.4 °F 62.1 °F 30.04 in Calm     86% 0.00 in WeatherDisplay:10.37 W/m2 SCT
06:40 66.4 °F 62.1 °F 30.04 in Calm     86% 0.00 in WeatherDisplay:10.37 W/m2 SCT
06:50 66.4 °F 62.1 °F 30.05 in Calm     86% 0.00 in WeatherDisplay:10.37 W/m2 SCT
07:00 66.4 °F 62.1 °F 30.05 in Calm     86% 0.00 in WeatherDisplay:10.37 W/m2 SCT
07:10 66.4 °F 62.1 °F 30.06 in Calm     86% 0.00 in WeatherDisplay:10.37 W/m2 SCT
07:20 66.4 °F 62.1 °F 30.06 in Calm     86% 0.00 in WeatherDisplay:10.37 W/m2 SCT
07:30 65.8 °F 63.1 °F 30.06 in Calm     91% 0.00 in WeatherDisplay:10.37 W/m2 SCT
07:40 66.3 °F 63.3 °F 30.06 in Calm     90% 0.00 in WeatherDisplay:10.37 W/m2 SCT
07:50 66.9 °F 63.9 °F 30.07 in Calm     90% 0.00 in WeatherDisplay:10.37 W/m2 SCT
08:00 67.5 °F 64.1 °F 30.07 in Calm     89% 0.00 in WeatherDisplay:10.37 W/m2 SCT
08:10 68.1 °F 64.7 °F 30.07 in Calm     89% 0.00 in WeatherDisplay:10.37 W/m2 SCT
08:20 68.8 °F 65.1 °F 30.07 in Calm     88% 0.00 in WeatherDisplay:10.37 W/m2 SCT
08:30 69.6 °F 65.6 °F 30.07 in Calm     87% 0.00 in WeatherDisplay:10.37 W/m2 SCT
08:40 70.5 °F 66.5 °F 30.07 in Calm     87% 0.00 in WeatherDisplay:10.37 W/m2 SCT
08:50 71.4 °F 66.3 °F 30.08 in Calm   1.0 mph 84% 0.00 in WeatherDisplay:10.37 W/m2 SCT
09:00 72.4 °F 66.6 °F 30.08 in Calm   1.0 mph 82% 0.00 in WeatherDisplay:10.37 W/m2 SCT
09:10 73.1 °F 67.3 °F 30.08 in Calm     82% 0.00 in WeatherDisplay:10.37 W/m2 SCT
09:20 73.4 °F 67.2 °F 30.08 in Calm     81% 0.00 in WeatherDisplay:10.37 W/m2 SCT
09:30 73.8 °F 67.9 °F 30.08 in Calm     82% 0.00 in WeatherDisplay:10.37 W/m2 SCT
09:40 74.1 °F 67.9 °F 30.08 in Calm     81% 0.00 in WeatherDisplay:10.37 W/m2 SCT
09:50 74.6 °F 68.0 °F 30.08 in Calm     80% 0.00 in WeatherDisplay:10.37 W/m2 SCT
10:00 75.0 °F 68.4 °F 30.09 in Calm     80% 0.00 in WeatherDisplay:10.37 W/m2 SCT
10:10 75.2 °F 68.6 °F 30.08 in Calm     80% 0.00 in WeatherDisplay:10.37 W/m2 SCT
10:20 75.6 °F 68.2 °F 30.08 in Calm   1.0 mph 78% 0.00 in WeatherDisplay:10.37 W/m2 SCT
10:30 76.3 °F 68.6 °F 30.08 in Calm   1.0 mph 77% 0.00 in WeatherDisplay:10.37 W/m2 SCT
10:40 76.8 °F 68.3 °F 30.08 in Calm   1.0 mph 75% 0.00 in WeatherDisplay:10.37 W/m2 SCT
10:50 77.7 °F 69.1 °F 30.07 in Calm   1.0 mph 75% 0.00 in WeatherDisplay:10.37 W/m2 SCT
11:00 78.3 °F 68.2 °F 30.07 in Calm   1.0 mph 71% 0.00 in WeatherDisplay:10.37 W/m2 SCT
11:10 79.2 °F 70.2 °F 30.07 in Calm   1.0 mph 74% 0.00 in WeatherDisplay:10.37 W/m2 SCT
11:20 80.1 °F 67.7 °F 30.07 in Calm     66% 0.00 in WeatherDisplay:10.37 W/m2 SCT
11:30 80.5 °F 68.1 °F 30.07 in Calm   1.0 mph 66% 0.00 in WeatherDisplay:10.37 W/m2 SCT
11:40 80.8 °F 67.9 °F 30.07 in Calm   1.0 mph 65% 0.00 in WeatherDisplay:10.37 W/m2 SCT
11:50 81.4 °F 66.7 °F 30.07 in Calm   1.0 mph 61% 0.00 in WeatherDisplay:10.37 W/m2 SCT
12:00 81.7 °F 66.0 °F 30.07 in Calm   1.0 mph 59% 0.00 in WeatherDisplay:10.37 W/m2 SCT
12:10 82.0 °F 67.7 °F 30.07 in Calm   1.0 mph 62% 0.00 in WeatherDisplay:10.37 W/m2 SCT
12:20 82.1 °F 63.8 °F 30.06 in Calm     54% 0.00 in WeatherDisplay:10.37 W/m2 SCT
12:30 83.1 °F 66.3 °F 30.06 in Calm   1.0 mph 57% 0.00 in WeatherDisplay:10.37 W/m2 SCT
12:40 84.5 °F 66.0 °F 30.05 in Calm     54% 0.00 in WeatherDisplay:10.37 W/m2 SCT
12:50 85.3 °F 62.2 °F 30.05 in Calm   2.0 mph 46% 0.00 in WeatherDisplay:10.37 W/m2 SCT
13:00 86.0 °F 65.2 °F 30.05 in Calm   2.0 mph 50% 0.00 in WeatherDisplay:10.37 W/m2 SCT
13:10 86.3 °F 62.4 °F 30.04 in Calm   1.0 mph 45% 0.00 in WeatherDisplay:10.37 W/m2 SCT
13:20 87.6 °F 63.6 °F 30.04 in Calm   1.0 mph 45% 0.00 in WeatherDisplay:10.37 W/m2 SCT
13:30 87.9 °F 64.6 °F 30.03 in Calm   1.0 mph 46% 0.00 in WeatherDisplay:10.37 W/m2 SCT
13:40 87.5 °F 62.2 °F 30.03 in Calm   2.0 mph 43% 0.00 in WeatherDisplay:10.37 W/m2 SCT
13:50 87.1 °F 61.9 °F 30.03 in SW 1.0 mph 2.0 mph 43% 0.00 in WeatherDisplay:10.37 W/m2 SCT
14:00 87.3 °F 64.0 °F 30.02 in Calm   2.0 mph 46% 0.00 in WeatherDisplay:10.37 W/m2 SCT
14:10 88.1 °F 62.1 °F 30.02 in Calm     42% 0.00 in WeatherDisplay:10.37 W/m2 SCT
14:20 87.7 °F 61.1 °F 30.02 in Calm   1.0 mph 41% 0.00 in WeatherDisplay:10.37 W/m2 SCT
14:30 87.6 °F 61.0 °F 30.01 in Calm   1.0 mph 41% 0.00 in WeatherDisplay:10.37 W/m2 SCT
14:40 86.7 °F 60.2 °F 30.01 in Calm   2.0 mph 41% 0.00 in WeatherDisplay:10.37 W/m2 SCT
14:50 86.6 °F 60.1 °F 30.01 in Calm   1.0 mph 41% 0.00 in WeatherDisplay:10.37 W/m2 SCT
15:00 86.0 °F 60.2 °F 30.01 in Calm     42% 0.00 in WeatherDisplay:10.37 W/m2 SCT
15:10 84.8 °F 61.1 °F 30.00 in Calm     45% 0.00 in WeatherDisplay:10.37 W/m2 SCT
15:20 84.9 °F 64.2 °F 30.00 in Calm     50% 0.00 in WeatherDisplay:10.37 W/m2 SCT
15:30 85.2 °F 59.5 °F 30.00 in Calm     42% 0.00 in WeatherDisplay:10.37 W/m2 SCT
15:40 85.3 °F 61.6 °F 29.99 in Calm     45% 0.00 in WeatherDisplay:10.37 W/m2 SCT
15:50 85.9 °F 62.1 °F 29.99 in Calm     45% 0.00 in WeatherDisplay:10.37 W/m2 SCT
16:00 85.7 °F 64.3 °F 29.98 in Calm     49% 0.00 in WeatherDisplay:10.37 W/m2 SCT
16:10 85.5 °F 65.8 °F 29.98 in Calm     52% 0.00 in WeatherDisplay:10.37 W/m2 SCT
16:20 84.8 °F 65.8 °F 29.98 in Calm     53% 0.00 in WeatherDisplay:10.37 W/m2 SCT
16:40 84.4 °F 64.8 °F 29.98 in Calm     52% 0.00 in WeatherDisplay:10.37 W/m2 SCT
16:50 84.7 °F 64.6 °F 29.97 in Calm     51% 0.00 in WeatherDisplay:10.37 W/m2 SCT
17:00 84.9 °F 63.1 °F 29.97 in Calm     48% 0.00 in WeatherDisplay:10.37 W/m2 SCT
17:10 85.4 °F 65.2 °F 29.97 in Calm   1.0 mph 51% 0.00 in WeatherDisplay:10.37 W/m2 SCT
17:20 85.1 °F 65.5 °F 29.97 in Calm   1.0 mph 52% 0.00 in WeatherDisplay:10.37 W/m2 SCT
17:30 85.2 °F 64.5 °F 29.96 in Calm   1.0 mph 50% 0.00 in WeatherDisplay:10.37 W/m2 SCT
17:40 84.8 °F 65.8 °F 29.96 in Calm   1.0 mph 53% 0.00 in WeatherDisplay:10.37 W/m2 SCT
17:50 84.8 °F 66.8 °F 29.96 in Calm   1.0 mph 55% 0.00 in WeatherDisplay:10.37 W/m2 SCT
18:00 84.7 °F 65.1 °F 29.96 in Calm   1.0 mph 52% 0.00 in WeatherDisplay:10.37 W/m2 SCT
18:10 84.1 °F 64.6 °F 29.96 in Calm   1.0 mph 52% 0.00 in WeatherDisplay:10.37 W/m2 SCT
18:20 83.7 °F 65.3 °F 29.96 in Calm   1.0 mph 54% 0.00 in WeatherDisplay:10.37 W/m2 SCT
18:30 83.0 °F 64.1 °F 29.96 in Calm   1.0 mph 53% 0.00 in WeatherDisplay:10.37 W/m2 SCT
18:40 82.8 °F 64.9 °F 29.96 in Calm     55% 0.00 in WeatherDisplay:10.37 W/m2 SCT
18:50 82.3 °F 64.5 °F 29.96 in Calm   1.0 mph 55% 0.00 in WeatherDisplay:10.37 W/m2 SCT
19:00 82.3 °F 64.5 °F 29.96 in Calm     55% 0.00 in WeatherDisplay:10.37 W/m2 SCT
19:10 82.4 °F 65.1 °F 29.96 in Calm     56% 0.00 in WeatherDisplay:10.37 W/m2 SCT
19:20 82.2 °F 66.5 °F 29.96 in Calm     59% 0.00 in WeatherDisplay:10.37 W/m2 SCT
19:30 82.0 °F 66.3 °F 29.96 in Calm     59% 0.00 in WeatherDisplay:10.37 W/m2 SCT
19:40 81.6 °F 67.3 °F 29.97 in Calm   1.0 mph 62% 0.00 in WeatherDisplay:10.37 W/m2 SCT
19:50 81.1 °F 67.8 °F 29.98 in Calm   1.0 mph 64% 0.00 in WeatherDisplay:10.37 W/m2 SCT
20:00 80.3 °F 67.1 °F 29.99 in Calm   1.0 mph 64% 0.00 in WeatherDisplay:10.37 W/m2 SCT
20:10 79.6 °F 66.8 °F 29.99 in Calm   1.0 mph 65% 0.00 in WeatherDisplay:10.37 W/m2 SCT
20:20 78.9 °F 66.6 °F 29.99 in Calm   1.0 mph 66% 0.00 in WeatherDisplay:10.37 W/m2 SCT
20:30 78.3 °F 66.4 °F 29.99 in Calm     67% 0.00 in WeatherDisplay:10.37 W/m2 SCT
20:40 77.7 °F 66.3 °F 29.99 in Calm     68% 0.00 in WeatherDisplay:10.37 W/m2 SCT
20:50 77.1 °F 66.1 °F 29.99 in Calm     69% 0.00 in WeatherDisplay:10.37 W/m2 SCT
21:00 76.6 °F 66.1 °F 30.00 in Calm     70% 0.00 in WeatherDisplay:10.37 W/m2 SCT
21:10 76.2 °F 66.1 °F 30.00 in Calm     71% 0.00 in WeatherDisplay:10.37 W/m2 SCT
21:20 75.9 °F 66.2 °F 30.00 in Calm     72% 0.00 in WeatherDisplay:10.37 W/m2 SCT
21:30 75.7 °F 66.0 °F 30.00 in Calm     72% 0.00 in WeatherDisplay:10.37 W/m2 SCT
21:40 75.4 °F 66.1 °F 30.00 in Calm     73% 0.00 in WeatherDisplay:10.37 W/m2 SCT
21:50 75.0 °F 65.8 °F 30.00 in Calm     73% 0.00 in WeatherDisplay:10.37 W/m2 SCT
22:00 74.7 °F 65.9 °F 30.00 in Calm     74% 0.00 in WeatherDisplay:10.37 W/m2 SCT
22:10 74.5 °F 66.1 °F 30.00 in Calm     75% 0.00 in WeatherDisplay:10.37 W/m2 SCT
22:20 74.3 °F 66.2 °F 30.01 in Calm     76% 0.00 in WeatherDisplay:10.37 W/m2 SCT
22:30 74.3 °F 66.2 °F 30.01 in Calm     76% 0.00 in WeatherDisplay:10.37 W/m2 SCT
22:40 74.3 °F 66.3 °F 30.01 in Calm     76% 0.00 in WeatherDisplay:10.37 W/m2 SCT
22:50 74.2 °F 66.2 °F 30.01 in Calm     76% 0.00 in WeatherDisplay:10.37 W/m2 SCT
23:00 74.2 °F 66.5 °F 30.01 in Calm     77% 0.00 in WeatherDisplay:10.37 W/m2 SCT
23:10 74.0 °F 66.3 °F 30.01 in Calm     77% 0.00 in WeatherDisplay:10.37 W/m2 SCT
23:20 73.8 °F 66.5 °F 30.01 in Calm     78% 0.00 in WeatherDisplay:10.37 W/m2 SCT
23:30 73.7 °F 66.4 °F 30.01 in Calm     78% 0.00 in WeatherDisplay:10.37 W/m2 SCT
23:40 73.5 °F 66.6 °F 30.01 in Calm     79% 0.00 in WeatherDisplay:10.37 W/m2 SCT
Piedmont Bend
Compliments of Weather Underground - 4 mb